sensor_id;sensor_type;location;lat;lon;timestamp;P1;durP1;ratioP1;P2;durP2;ratioP2
79646;SDS011;69119;41.718;21.786;2023-04-24T00:00:15;13.73;;;10.35;;
79646;SDS011;69119;41.718;21.786;2023-04-24T00:02:42;15.55;;;11.65;;
79646;SDS011;69119;41.718;21.786;2023-04-24T00:05:12;13.40;;;10.40;;
79646;SDS011;69119;41.718;21.786;2023-04-24T00:07:38;17.05;;;10.73;;
79646;SDS011;69119;41.718;21.786;2023-04-24T00:10:05;14.20;;;10.80;;
79646;SDS011;69119;41.718;21.786;2023-04-24T00:12:31;15.13;;;11.20;;
79646;SDS011;69119;41.718;21.786;2023-04-24T00:14:57;15.18;;;11.38;;
79646;SDS011;69119;41.718;21.786;2023-04-24T00:17:23;15.38;;;11.90;;
79646;SDS011;69119;41.718;21.786;2023-04-24T00:19:49;13.57;;;10.00;;
79646;SDS011;69119;41.718;21.786;2023-04-24T00:22:16;14.02;;;11.40;;
79646;SDS011;69119;41.718;21.786;2023-04-24T00:27:08;14.35;;;9.73;;
79646;SDS011;69119;41.718;21.786;2023-04-24T00:29:35;14.48;;;11.10;;
79646;SDS011;69119;41.718;21.786;2023-04-24T00:32:01;14.88;;;10.98;;
79646;SDS011;69119;41.718;21.786;2023-04-24T00:34:27;15.02;;;10.70;;
79646;SDS011;69119;41.718;21.786;2023-04-24T00:36:53;14.73;;;12.27;;
79646;SDS011;69119;41.718;21.786;2023-04-24T00:39:19;15.60;;;11.18;;
79646;SDS011;69119;41.718;21.786;2023-04-24T00:41:46;14.83;;;11.33;;
79646;SDS011;69119;41.718;21.786;2023-04-24T00:44:13;15.80;;;11.70;;
79646;SDS011;69119;41.718;21.786;2023-04-24T00:46:39;15.85;;;11.65;;
79646;SDS011;69119;41.718;21.786;2023-04-24T00:49:05;19.60;;;11.60;;
79646;SDS011;69119;41.718;21.786;2023-04-24T00:51:32;15.80;;;12.15;;
79646;SDS011;69119;41.718;21.786;2023-04-24T00:54:01;15.73;;;11.98;;
79646;SDS011;69119;41.718;21.786;2023-04-24T00:56:27;16.83;;;9.90;;
79646;SDS011;69119;41.718;21.786;2023-04-24T00:58:53;14.90;;;10.93;;
79646;SDS011;69119;41.718;21.786;2023-04-24T01:01:20;14.98;;;10.82;;
79646;SDS011;69119;41.718;21.786;2023-04-24T01:03:47;15.63;;;12.18;;
79646;SDS011;69119;41.718;21.786;2023-04-24T01:06:15;16.92;;;11.88;;
79646;SDS011;69119;41.718;21.786;2023-04-24T01:08:41;15.65;;;11.77;;
79646;SDS011;69119;41.718;21.786;2023-04-24T01:11:07;16.50;;;12.77;;
79646;SDS011;69119;41.718;21.786;2023-04-24T01:13:33;16.05;;;10.98;;
79646;SDS011;69119;41.718;21.786;2023-04-24T01:16:00;15.70;;;11.60;;
79646;SDS011;69119;41.718;21.786;2023-04-24T01:18:26;15.98;;;12.30;;
79646;SDS011;69119;41.718;21.786;2023-04-24T01:20:57;16.08;;;10.18;;
79646;SDS011;69119;41.718;21.786;2023-04-24T01:23:24;14.40;;;10.57;;
79646;SDS011;69119;41.718;21.786;2023-04-24T01:25:50;16.75;;;11.50;;
79646;SDS011;69119;41.718;21.786;2023-04-24T01:28:16;15.45;;;11.57;;
79646;SDS011;69119;41.718;21.786;2023-04-24T01:30:43;17.55;;;12.68;;
79646;SDS011;69119;41.718;21.786;2023-04-24T01:33:09;16.25;;;11.68;;
79646;SDS011;69119;41.718;21.786;2023-04-24T01:35:35;19.40;;;12.65;;
79646;SDS011;69119;41.718;21.786;2023-04-24T01:38:02;17.60;;;13.02;;
79646;SDS011;69119;41.718;21.786;2023-04-24T01:40:28;20.55;;;12.30;;
79646;SDS011;69119;41.718;21.786;2023-04-24T01:42:54;17.30;;;11.50;;
79646;SDS011;69119;41.718;21.786;2023-04-24T01:45:21;18.25;;;14.00;;
79646;SDS011;69119;41.718;21.786;2023-04-24T01:47:47;17.58;;;11.57;;
79646;SDS011;69119;41.718;21.786;2023-04-24T01:50:13;19.70;;;13.18;;
79646;SDS011;69119;41.718;21.786;2023-04-24T01:52:39;16.23;;;13.40;;
79646;SDS011;69119;41.718;21.786;2023-04-24T01:55:06;17.48;;;12.80;;
79646;SDS011;69119;41.718;21.786;2023-04-24T01:57:32;17.50;;;12.82;;
79646;SDS011;69119;41.718;21.786;2023-04-24T01:59:59;18.20;;;13.48;;
79646;SDS011;69119;41.718;21.786;2023-04-24T02:02:25;18.75;;;12.73;;
79646;SDS011;69119;41.718;21.786;2023-04-24T02:04:55;16.67;;;11.85;;
79646;SDS011;69119;41.718;21.786;2023-04-24T02:07:21;18.02;;;13.55;;
79646;SDS011;69119;41.718;21.786;2023-04-24T02:09:48;17.63;;;12.80;;
79646;SDS011;69119;41.718;21.786;2023-04-24T02:12:17;17.98;;;13.10;;
79646;SDS011;69119;41.718;21.786;2023-04-24T02:14:43;18.08;;;13.13;;
79646;SDS011;69119;41.718;21.786;2023-04-24T02:17:09;21.92;;;14.15;;
79646;SDS011;69119;41.718;21.786;2023-04-24T02:19:37;17.33;;;13.52;;
79646;SDS011;69119;41.718;21.786;2023-04-24T02:22:04;16.20;;;12.32;;
79646;SDS011;69119;41.718;21.786;2023-04-24T02:24:30;17.35;;;12.38;;
79646;SDS011;69119;41.718;21.786;2023-04-24T02:26:56;17.60;;;12.55;;
79646;SDS011;69119;41.718;21.786;2023-04-24T02:29:23;19.05;;;13.18;;
79646;SDS011;69119;41.718;21.786;2023-04-24T02:31:49;17.15;;;13.38;;
79646;SDS011;69119;41.718;21.786;2023-04-24T02:34:15;18.95;;;13.98;;
79646;SDS011;69119;41.718;21.786;2023-04-24T02:36:41;19.00;;;13.65;;
79646;SDS011;69119;41.718;21.786;2023-04-24T02:39:07;19.38;;;13.65;;
79646;SDS011;69119;41.718;21.786;2023-04-24T02:41:33;17.88;;;13.13;;
79646;SDS011;69119;41.718;21.786;2023-04-24T02:43:59;19.00;;;14.32;;
79646;SDS011;69119;41.718;21.786;2023-04-24T02:46:25;19.50;;;14.10;;
79646;SDS011;69119;41.718;21.786;2023-04-24T02:48:51;19.85;;;13.25;;
79646;SDS011;69119;41.718;21.786;2023-04-24T02:51:17;17.23;;;12.68;;
79646;SDS011;69119;41.718;21.786;2023-04-24T02:53:44;19.55;;;13.27;;
79646;SDS011;69119;41.718;21.786;2023-04-24T02:56:10;21.65;;;13.15;;
79646;SDS011;69119;41.718;21.786;2023-04-24T02:58:38;20.42;;;14.98;;
79646;SDS011;69119;41.718;21.786;2023-04-24T03:01:04;19.90;;;14.32;;
79646;SDS011;69119;41.718;21.786;2023-04-24T03:03:31;20.42;;;15.95;;
79646;SDS011;69119;41.718;21.786;2023-04-24T03:05:57;19.63;;;14.30;;
79646;SDS011;69119;41.718;21.786;2023-04-24T03:08:23;17.75;;;14.07;;
79646;SDS011;69119;41.718;21.786;2023-04-24T03:10:49;21.15;;;14.05;;
79646;SDS011;69119;41.718;21.786;2023-04-24T03:13:15;18.30;;;14.25;;
79646;SDS011;69119;41.718;21.786;2023-04-24T03:15:42;22.02;;;14.75;;
79646;SDS011;69119;41.718;21.786;2023-04-24T03:18:08;20.35;;;15.75;;
79646;SDS011;69119;41.718;21.786;2023-04-24T03:20:34;19.45;;;14.63;;
79646;SDS011;69119;41.718;21.786;2023-04-24T03:23:01;19.45;;;14.82;;
79646;SDS011;69119;41.718;21.786;2023-04-24T03:25:27;20.05;;;13.98;;
79646;SDS011;69119;41.718;21.786;2023-04-24T03:27:54;19.75;;;15.73;;
79646;SDS011;69119;41.718;21.786;2023-04-24T03:30:20;20.02;;;13.32;;
79646;SDS011;69119;41.718;21.786;2023-04-24T03:32:46;23.83;;;14.82;;
79646;SDS011;69119;41.718;21.786;2023-04-24T03:35:12;21.90;;;15.38;;
79646;SDS011;69119;41.718;21.786;2023-04-24T03:37:38;21.30;;;14.85;;
79646;SDS011;69119;41.718;21.786;2023-04-24T03:40:04;25.60;;;15.60;;
79646;SDS011;69119;41.718;21.786;2023-04-24T03:42:32;23.17;;;15.25;;
79646;SDS011;69119;41.718;21.786;2023-04-24T03:44:58;22.25;;;15.95;;
79646;SDS011;69119;41.718;21.786;2023-04-24T03:47:24;20.02;;;14.60;;
79646;SDS011;69119;41.718;21.786;2023-04-24T03:49:50;22.58;;;15.45;;
79646;SDS011;69119;41.718;21.786;2023-04-24T03:52:16;19.77;;;16.98;;
79646;SDS011;69119;41.718;21.786;2023-04-24T03:54:42;21.05;;;14.30;;
79646;SDS011;69119;41.718;21.786;2023-04-24T03:57:08;20.30;;;16.45;;
79646;SDS011;69119;41.718;21.786;2023-04-24T03:59:34;21.85;;;14.98;;
79646;SDS011;69119;41.718;21.786;2023-04-24T04:02:00;20.50;;;15.23;;
79646;SDS011;69119;41.718;21.786;2023-04-24T04:04:27;20.90;;;15.85;;
79646;SDS011;69119;41.718;21.786;2023-04-24T04:06:53;19.45;;;15.00;;
79646;SDS011;69119;41.718;21.786;2023-04-24T04:09:19;20.13;;;14.40;;
79646;SDS011;69119;41.718;21.786;2023-04-24T04:11:45;19.13;;;14.50;;
79646;SDS011;69119;41.718;21.786;2023-04-24T04:14:11;19.42;;;13.73;;
79646;SDS011;69119;41.718;21.786;2023-04-24T04:16:37;21.80;;;14.02;;
79646;SDS011;69119;41.718;21.786;2023-04-24T04:19:03;20.00;;;13.35;;
79646;SDS011;69119;41.718;21.786;2023-04-24T04:21:30;21.60;;;13.32;;
79646;SDS011;69119;41.718;21.786;2023-04-24T04:23:57;21.30;;;13.88;;
79646;SDS011;69119;41.718;21.786;2023-04-24T04:26:23;20.67;;;13.77;;
79646;SDS011;69119;41.718;21.786;2023-04-24T04:28:50;24.00;;;14.95;;
79646;SDS011;69119;41.718;21.786;2023-04-24T04:31:16;23.42;;;16.75;;
79646;SDS011;69119;41.718;21.786;2023-04-24T04:33:43;21.15;;;14.70;;
79646;SDS011;69119;41.718;21.786;2023-04-24T04:36:09;21.13;;;15.10;;
79646;SDS011;69119;41.718;21.786;2023-04-24T04:38:35;21.48;;;15.48;;
79646;SDS011;69119;41.718;21.786;2023-04-24T04:41:02;20.48;;;13.43;;
79646;SDS011;69119;41.718;21.786;2023-04-24T04:43:28;19.42;;;14.10;;
79646;SDS011;69119;41.718;21.786;2023-04-24T04:45:55;21.63;;;15.82;;
79646;SDS011;69119;41.718;21.786;2023-04-24T04:48:22;22.02;;;14.30;;
79646;SDS011;69119;41.718;21.786;2023-04-24T04:50:48;19.92;;;15.55;;
79646;SDS011;69119;41.718;21.786;2023-04-24T04:53:14;23.83;;;16.23;;
79646;SDS011;69119;41.718;21.786;2023-04-24T04:55:40;20.17;;;13.80;;
79646;SDS011;69119;41.718;21.786;2023-04-24T04:58:06;21.60;;;16.73;;
79646;SDS011;69119;41.718;21.786;2023-04-24T05:00:33;20.63;;;14.10;;
79646;SDS011;69119;41.718;21.786;2023-04-24T05:03:02;20.13;;;13.35;;
79646;SDS011;69119;41.718;21.786;2023-04-24T05:05:35;20.77;;;14.05;;
79646;SDS011;69119;41.718;21.786;2023-04-24T05:08:08;18.17;;;12.00;;
79646;SDS011;69119;41.718;21.786;2023-04-24T05:10:38;26.60;;;14.60;;
79646;SDS011;69119;41.718;21.786;2023-04-24T05:13:04;23.02;;;15.68;;
79646;SDS011;69119;41.718;21.786;2023-04-24T05:15:30;46.33;;;32.28;;
79646;SDS011;69119;41.718;21.786;2023-04-24T05:17:57;25.38;;;17.08;;
79646;SDS011;69119;41.718;21.786;2023-04-24T05:20:23;22.10;;;15.77;;
79646;SDS011;69119;41.718;21.786;2023-04-24T05:22:49;19.33;;;12.43;;
79646;SDS011;69119;41.718;21.786;2023-04-24T05:25:15;15.30;;;10.98;;
79646;SDS011;69119;41.718;21.786;2023-04-24T05:27:41;16.25;;;10.82;;
79646;SDS011;69119;41.718;21.786;2023-04-24T05:30:07;20.50;;;13.93;;
79646;SDS011;69119;41.718;21.786;2023-04-24T05:32:34;21.60;;;14.35;;
79646;SDS011;69119;41.718;21.786;2023-04-24T05:35:00;17.08;;;12.27;;
79646;SDS011;69119;41.718;21.786;2023-04-24T05:37:46;21.60;;;13.27;;
79646;SDS011;69119;41.718;21.786;2023-04-24T05:40:12;19.90;;;12.88;;
79646;SDS011;69119;41.718;21.786;2023-04-24T05:42:39;18.65;;;12.68;;
79646;SDS011;69119;41.718;21.786;2023-04-24T05:45:05;19.92;;;14.10;;
79646;SDS011;69119;41.718;21.786;2023-04-24T05:47:31;19.10;;;14.27;;
79646;SDS011;69119;41.718;21.786;2023-04-24T05:49:57;19.73;;;14.27;;
79646;SDS011;69119;41.718;21.786;2023-04-24T05:52:23;22.27;;;14.88;;
79646;SDS011;69119;41.718;21.786;2023-04-24T05:54:50;19.75;;;13.68;;
79646;SDS011;69119;41.718;21.786;2023-04-24T05:57:16;18.33;;;13.90;;
79646;SDS011;69119;41.718;21.786;2023-04-24T05:59:42;17.42;;;13.90;;
79646;SDS011;69119;41.718;21.786;2023-04-24T06:02:08;16.35;;;11.20;;
79646;SDS011;69119;41.718;21.786;2023-04-24T06:04:34;18.80;;;10.98;;
79646;SDS011;69119;41.718;21.786;2023-04-24T06:07:00;16.95;;;13.48;;
79646;SDS011;69119;41.718;21.786;2023-04-24T06:09:26;17.77;;;14.82;;
79646;SDS011;69119;41.718;21.786;2023-04-24T06:11:52;18.85;;;14.07;;
79646;SDS011;69119;41.718;21.786;2023-04-24T06:14:19;15.73;;;12.80;;
79646;SDS011;69119;41.718;21.786;2023-04-24T06:16:45;17.38;;;11.98;;
79646;SDS011;69119;41.718;21.786;2023-04-24T06:19:11;30.33;;;24.17;;
79646;SDS011;69119;41.718;21.786;2023-04-24T06:21:37;74.53;;;45.53;;
79646;SDS011;69119;41.718;21.786;2023-04-24T06:24:03;19.15;;;13.85;;
79646;SDS011;69119;41.718;21.786;2023-04-24T06:26:29;24.63;;;20.52;;
79646;SDS011;69119;41.718;21.786;2023-04-24T06:28:55;18.52;;;15.13;;
79646;SDS011;69119;41.718;21.786;2023-04-24T06:31:23;18.45;;;15.15;;
79646;SDS011;69119;41.718;21.786;2023-04-24T06:33:49;18.38;;;13.43;;
79646;SDS011;69119;41.718;21.786;2023-04-24T06:36:15;14.65;;;11.55;;
79646;SDS011;69119;41.718;21.786;2023-04-24T06:38:42;13.63;;;9.05;;
79646;SDS011;69119;41.718;21.786;2023-04-24T06:41:09;17.75;;;12.75;;
79646;SDS011;69119;41.718;21.786;2023-04-24T06:43:35;15.25;;;10.20;;
79646;SDS011;69119;41.718;21.786;2023-04-24T06:46:01;12.65;;;8.55;;
79646;SDS011;69119;41.718;21.786;2023-04-24T06:48:28;11.63;;;8.77;;
79646;SDS011;69119;41.718;21.786;2023-04-24T06:50:54;10.90;;;8.48;;
79646;SDS011;69119;41.718;21.786;2023-04-24T06:53:20;9.82;;;8.35;;
79646;SDS011;69119;41.718;21.786;2023-04-24T06:55:46;10.50;;;7.60;;
79646;SDS011;69119;41.718;21.786;2023-04-24T06:58:13;13.20;;;9.32;;
79646;SDS011;69119;41.718;21.786;2023-04-24T07:00:40;11.93;;;9.27;;
79646;SDS011;69119;41.718;21.786;2023-04-24T07:05:32;11.63;;;8.60;;
79646;SDS011;69119;41.718;21.786;2023-04-24T07:08:00;11.90;;;9.00;;
79646;SDS011;69119;41.718;21.786;2023-04-24T07:10:26;9.95;;;7.30;;
79646;SDS011;69119;41.718;21.786;2023-04-24T07:12:53;10.68;;;7.63;;
79646;SDS011;69119;41.718;21.786;2023-04-24T07:15:21;12.57;;;8.38;;
79646;SDS011;69119;41.718;21.786;2023-04-24T07:20:13;9.70;;;7.50;;
79646;SDS011;69119;41.718;21.786;2023-04-24T07:22:39;9.48;;;7.65;;
79646;SDS011;69119;41.718;21.786;2023-04-24T07:25:06;10.20;;;7.93;;
79646;SDS011;69119;41.718;21.786;2023-04-24T07:27:33;12.10;;;8.40;;
79646;SDS011;69119;41.718;21.786;2023-04-24T07:30:00;10.18;;;8.52;;
79646;SDS011;69119;41.718;21.786;2023-04-24T07:34:52;11.45;;;7.93;;
79646;SDS011;69119;41.718;21.786;2023-04-24T07:37:19;9.45;;;7.53;;
79646;SDS011;69119;41.718;21.786;2023-04-24T07:39:45;14.30;;;10.38;;
79646;SDS011;69119;41.718;21.786;2023-04-24T07:42:11;11.82;;;8.93;;
79646;SDS011;69119;41.718;21.786;2023-04-24T07:47:03;10.85;;;8.70;;
79646;SDS011;69119;41.718;21.786;2023-04-24T07:49:29;13.13;;;10.30;;
79646;SDS011;69119;41.718;21.786;2023-04-24T07:51:56;10.95;;;9.13;;
79646;SDS011;69119;41.718;21.786;2023-04-24T07:56:48;11.10;;;8.13;;
79646;SDS011;69119;41.718;21.786;2023-04-24T07:59:17;13.02;;;8.77;;
79646;SDS011;69119;41.718;21.786;2023-04-24T08:01:47;11.55;;;8.43;;
79646;SDS011;69119;41.718;21.786;2023-04-24T08:04:13;9.02;;;7.47;;
79646;SDS011;69119;41.718;21.786;2023-04-24T08:09:05;10.30;;;7.65;;
79646;SDS011;69119;41.718;21.786;2023-04-24T08:11:31;11.50;;;8.07;;
79646;SDS011;69119;41.718;21.786;2023-04-24T08:13:57;9.75;;;8.25;;
79646;SDS011;69119;41.718;21.786;2023-04-24T08:18:50;15.65;;;8.38;;
79646;SDS011;69119;41.718;21.786;2023-04-24T08:21:16;10.25;;;8.45;;
79646;SDS011;69119;41.718;21.786;2023-04-24T08:23:43;11.43;;;8.13;;
79646;SDS011;69119;41.718;21.786;2023-04-24T08:26:10;12.57;;;8.57;;
79646;SDS011;69119;41.718;21.786;2023-04-24T08:28:37;12.48;;;8.38;;
79646;SDS011;69119;41.718;21.786;2023-04-24T08:31:03;10.38;;;8.25;;
79646;SDS011;69119;41.718;21.786;2023-04-24T08:33:29;8.70;;;7.18;;
79646;SDS011;69119;41.718;21.786;2023-04-24T08:36:00;15.00;;;8.35;;
79646;SDS011;69119;41.718;21.786;2023-04-24T08:38:26;11.25;;;8.18;;
79646;SDS011;69119;41.718;21.786;2023-04-24T08:43:18;12.82;;;7.05;;
79646;SDS011;69119;41.718;21.786;2023-04-24T08:45:44;10.20;;;7.43;;
79646;SDS011;69119;41.718;21.786;2023-04-24T08:48:10;12.52;;;7.97;;
79646;SDS011;69119;41.718;21.786;2023-04-24T08:50:37;10.10;;;7.85;;
79646;SDS011;69119;41.718;21.786;2023-04-24T08:53:06;10.70;;;8.30;;
79646;SDS011;69119;41.718;21.786;2023-04-24T08:55:33;12.93;;;8.80;;
79646;SDS011;69119;41.718;21.786;2023-04-24T08:57:59;8.68;;;7.20;;
79646;SDS011;69119;41.718;21.786;2023-04-24T09:00:26;10.75;;;7.57;;
79646;SDS011;69119;41.718;21.786;2023-04-24T09:02:53;9.70;;;7.43;;
79646;SDS011;69119;41.718;21.786;2023-04-24T09:05:19;9.35;;;6.93;;
79646;SDS011;69119;41.718;21.786;2023-04-24T09:07:49;9.55;;;6.28;;
79646;SDS011;69119;41.718;21.786;2023-04-24T09:10:15;9.80;;;7.68;;
79646;SDS011;69119;41.718;21.786;2023-04-24T09:12:42;10.13;;;7.63;;
79646;SDS011;69119;41.718;21.786;2023-04-24T09:15:09;12.73;;;7.50;;
79646;SDS011;69119;41.718;21.786;2023-04-24T09:17:37;10.27;;;7.90;;
79646;SDS011;69119;41.718;21.786;2023-04-24T09:20:03;11.23;;;7.85;;
79646;SDS011;69119;41.718;21.786;2023-04-24T09:22:30;10.52;;;7.47;;
79646;SDS011;69119;41.718;21.786;2023-04-24T09:25:00;9.73;;;6.22;;
79646;SDS011;69119;41.718;21.786;2023-04-24T09:27:28;11.90;;;6.72;;
79646;SDS011;69119;41.718;21.786;2023-04-24T09:29:59;9.55;;;6.70;;
79646;SDS011;69119;41.718;21.786;2023-04-24T09:32:25;11.02;;;7.18;;
79646;SDS011;69119;41.718;21.786;2023-04-24T09:35:08;9.57;;;6.75;;
79646;SDS011;69119;41.718;21.786;2023-04-24T09:37:35;10.82;;;6.82;;
79646;SDS011;69119;41.718;21.786;2023-04-24T09:40:18;9.13;;;6.85;;
79646;SDS011;69119;41.718;21.786;2023-04-24T09:42:54;9.40;;;7.28;;
79646;SDS011;69119;41.718;21.786;2023-04-24T09:45:21;10.93;;;7.53;;
79646;SDS011;69119;41.718;21.786;2023-04-24T09:47:51;9.43;;;6.68;;
79646;SDS011;69119;41.718;21.786;2023-04-24T09:50:20;8.55;;;7.03;;
79646;SDS011;69119;41.718;21.786;2023-04-24T09:52:55;9.45;;;6.75;;
79646;SDS011;69119;41.718;21.786;2023-04-24T09:55:21;9.50;;;6.28;;
79646;SDS011;69119;41.718;21.786;2023-04-24T09:58:05;8.82;;;7.43;;
79646;SDS011;69119;41.718;21.786;2023-04-24T10:00:33;8.10;;;5.40;;
79646;SDS011;69119;41.718;21.786;2023-04-24T10:05:32;12.13;;;6.63;;
79646;SDS011;69119;41.718;21.786;2023-04-24T10:08:10;8.77;;;6.78;;
79646;SDS011;69119;41.718;21.786;2023-04-24T10:10:41;9.70;;;7.45;;
79646;SDS011;69119;41.718;21.786;2023-04-24T10:13:07;8.23;;;5.95;;
79646;SDS011;69119;41.718;21.786;2023-04-24T10:15:35;10.38;;;6.90;;
79646;SDS011;69119;41.718;21.786;2023-04-24T10:20:28;9.60;;;6.78;;
79646;SDS011;69119;41.718;21.786;2023-04-24T10:22:55;8.75;;;5.70;;
79646;SDS011;69119;41.718;21.786;2023-04-24T10:25:22;10.40;;;6.78;;
79646;SDS011;69119;41.718;21.786;2023-04-24T10:27:49;7.30;;;5.68;;
79646;SDS011;69119;41.718;21.786;2023-04-24T10:30:16;7.90;;;6.05;;
79646;SDS011;69119;41.718;21.786;2023-04-24T10:32:42;7.65;;;5.47;;
79646;SDS011;69119;41.718;21.786;2023-04-24T10:35:09;8.45;;;5.13;;
79646;SDS011;69119;41.718;21.786;2023-04-24T10:40:34;8.48;;;4.55;;
79646;SDS011;69119;41.718;21.786;2023-04-24T10:43:04;10.88;;;7.30;;
79646;SDS011;69119;41.718;21.786;2023-04-24T10:45:33;9.88;;;6.70;;
79646;SDS011;69119;41.718;21.786;2023-04-24T10:48:01;8.75;;;5.38;;
79646;SDS011;69119;41.718;21.786;2023-04-24T10:50:28;8.63;;;4.55;;
79646;SDS011;69119;41.718;21.786;2023-04-24T10:53:05;8.93;;;6.40;;
79646;SDS011;69119;41.718;21.786;2023-04-24T10:58:09;10.48;;;5.97;;
79646;SDS011;69119;41.718;21.786;2023-04-24T11:00:37;9.57;;;6.72;;
79646;SDS011;69119;41.718;21.786;2023-04-24T11:03:22;8.07;;;6.50;;
79646;SDS011;69119;41.718;21.786;2023-04-24T11:06:05;10.30;;;7.10;;
79646;SDS011;69119;41.718;21.786;2023-04-24T11:08:39;12.02;;;7.05;;
79646;SDS011;69119;41.718;21.786;2023-04-24T11:16:26;9.55;;;6.22;;
79646;SDS011;69119;41.718;21.786;2023-04-24T11:21:31;9.80;;;6.53;;
79646;SDS011;69119;41.718;21.786;2023-04-24T11:23:58;10.27;;;6.75;;
79646;SDS011;69119;41.718;21.786;2023-04-24T11:26:24;12.48;;;6.70;;
79646;SDS011;69119;41.718;21.786;2023-04-24T11:28:55;8.05;;;5.45;;
79646;SDS011;69119;41.718;21.786;2023-04-24T11:31:38;9.45;;;6.30;;
79646;SDS011;69119;41.718;21.786;2023-04-24T11:34:08;10.50;;;6.93;;
79646;SDS011;69119;41.718;21.786;2023-04-24T11:36:35;7.38;;;5.55;;
79646;SDS011;69119;41.718;21.786;2023-04-24T11:39:01;8.70;;;5.10;;
79646;SDS011;69119;41.718;21.786;2023-04-24T11:41:28;9.73;;;5.97;;
79646;SDS011;69119;41.718;21.786;2023-04-24T11:46:22;10.55;;;6.32;;
79646;SDS011;69119;41.718;21.786;2023-04-24T11:48:49;11.57;;;6.15;;
79646;SDS011;69119;41.718;21.786;2023-04-24T11:53:40;9.43;;;5.97;;
79646;SDS011;69119;41.718;21.786;2023-04-24T11:58:36;11.57;;;6.35;;
79646;SDS011;69119;41.718;21.786;2023-04-24T12:01:02;8.85;;;6.88;;
79646;SDS011;69119;41.718;21.786;2023-04-24T12:03:29;11.05;;;6.93;;
79646;SDS011;69119;41.718;21.786;2023-04-24T12:06:05;11.75;;;6.82;;
79646;SDS011;69119;41.718;21.786;2023-04-24T12:08:32;9.57;;;6.75;;
79646;SDS011;69119;41.718;21.786;2023-04-24T12:11:02;9.10;;;4.78;;
79646;SDS011;69119;41.718;21.786;2023-04-24T12:13:28;11.30;;;6.00;;
79646;SDS011;69119;41.718;21.786;2023-04-24T12:15:56;8.45;;;5.55;;
79646;SDS011;69119;41.718;21.786;2023-04-24T12:18:22;8.05;;;5.80;;
79646;SDS011;69119;41.718;21.786;2023-04-24T12:20:48;9.35;;;5.43;;
79646;SDS011;69119;41.718;21.786;2023-04-24T12:23:15;11.40;;;5.60;;
79646;SDS011;69119;41.718;21.786;2023-04-24T12:25:42;9.27;;;5.75;;
79646;SDS011;69119;41.718;21.786;2023-04-24T12:30:58;8.15;;;5.55;;
79646;SDS011;69119;41.718;21.786;2023-04-24T12:33:24;10.00;;;6.72;;
79646;SDS011;69119;41.718;21.786;2023-04-24T12:35:53;7.57;;;3.40;;
79646;SDS011;69119;41.718;21.786;2023-04-24T12:38:24;9.55;;;6.50;;
79646;SDS011;69119;41.718;21.786;2023-04-24T12:41:01;9.15;;;5.60;;
79646;SDS011;69119;41.718;21.786;2023-04-24T12:43:29;8.07;;;5.70;;
79646;SDS011;69119;41.718;21.786;2023-04-24T12:45:55;9.05;;;5.85;;
79646;SDS011;69119;41.718;21.786;2023-04-24T12:48:21;8.93;;;5.93;;
79646;SDS011;69119;41.718;21.786;2023-04-24T12:50:48;8.50;;;6.05;;
79646;SDS011;69119;41.718;21.786;2023-04-24T12:53:14;9.98;;;6.22;;
79646;SDS011;69119;41.718;21.786;2023-04-24T12:55:41;8.60;;;5.57;;
79646;SDS011;69119;41.718;21.786;2023-04-24T12:58:07;8.43;;;5.50;;
79646;SDS011;69119;41.718;21.786;2023-04-24T13:00:33;8.00;;;4.72;;
79646;SDS011;69119;41.718;21.786;2023-04-24T13:02:59;8.90;;;5.68;;
79646;SDS011;69119;41.718;21.786;2023-04-24T13:05:26;11.13;;;6.15;;
79646;SDS011;69119;41.718;21.786;2023-04-24T13:07:52;7.97;;;6.38;;
79646;SDS011;69119;41.718;21.786;2023-04-24T13:10:18;8.77;;;6.00;;
79646;SDS011;69119;41.718;21.786;2023-04-24T13:12:44;11.55;;;7.05;;
79646;SDS011;69119;41.718;21.786;2023-04-24T13:15:11;7.93;;;5.03;;
79646;SDS011;69119;41.718;21.786;2023-04-24T13:17:38;10.40;;;6.65;;
79646;SDS011;69119;41.718;21.786;2023-04-24T13:22:30;8.20;;;5.13;;
79646;SDS011;69119;41.718;21.786;2023-04-24T13:24:56;8.63;;;6.18;;
79646;SDS011;69119;41.718;21.786;2023-04-24T13:27:22;8.63;;;5.30;;
79646;SDS011;69119;41.718;21.786;2023-04-24T13:32:14;9.73;;;5.57;;
79646;SDS011;69119;41.718;21.786;2023-04-24T13:37:06;9.10;;;5.93;;
79646;SDS011;69119;41.718;21.786;2023-04-24T13:39:33;9.25;;;5.28;;
79646;SDS011;69119;41.718;21.786;2023-04-24T13:41:59;11.68;;;5.55;;
79646;SDS011;69119;41.718;21.786;2023-04-24T13:44:25;12.48;;;6.35;;
79646;SDS011;69119;41.718;21.786;2023-04-24T13:49:19;10.45;;;7.22;;
79646;SDS011;69119;41.718;21.786;2023-04-24T13:51:45;8.88;;;6.82;;
79646;SDS011;69119;41.718;21.786;2023-04-24T13:54:12;9.45;;;5.28;;
79646;SDS011;69119;41.718;21.786;2023-04-24T13:59:04;7.82;;;4.50;;
79646;SDS011;69119;41.718;21.786;2023-04-24T14:01:30;9.85;;;6.07;;
79646;SDS011;69119;41.718;21.786;2023-04-24T14:03:56;12.02;;;6.80;;
79646;SDS011;69119;41.718;21.786;2023-04-24T14:06:22;12.77;;;7.72;;
79646;SDS011;69119;41.718;21.786;2023-04-24T14:11:15;12.35;;;6.95;;
79646;SDS011;69119;41.718;21.786;2023-04-24T14:16:07;10.57;;;7.68;;
79646;SDS011;69119;41.718;21.786;2023-04-24T14:18:33;11.90;;;7.45;;
79646;SDS011;69119;41.718;21.786;2023-04-24T14:21:01;11.57;;;8.32;;
79646;SDS011;69119;41.718;21.786;2023-04-24T14:25:53;11.13;;;8.30;;
79646;SDS011;69119;41.718;21.786;2023-04-24T14:28:19;11.13;;;7.93;;
79646;SDS011;69119;41.718;21.786;2023-04-24T14:30:46;9.02;;;5.70;;
79646;SDS011;69119;41.718;21.786;2023-04-24T14:33:12;11.20;;;8.10;;
79646;SDS011;69119;41.718;21.786;2023-04-24T14:35:38;10.63;;;5.95;;
79646;SDS011;69119;41.718;21.786;2023-04-24T14:38:07;8.82;;;6.10;;
79646;SDS011;69119;41.718;21.786;2023-04-24T14:42:59;10.02;;;7.82;;
79646;SDS011;69119;41.718;21.786;2023-04-24T14:45:25;9.65;;;6.88;;
79646;SDS011;69119;41.718;21.786;2023-04-24T14:47:51;8.15;;;5.85;;
79646;SDS011;69119;41.718;21.786;2023-04-24T14:52:43;11.57;;;8.27;;
79646;SDS011;69119;41.718;21.786;2023-04-24T14:55:10;11.07;;;8.07;;
79646;SDS011;69119;41.718;21.786;2023-04-24T14:57:36;9.60;;;7.03;;
79646;SDS011;69119;41.718;21.786;2023-04-24T15:00:05;10.23;;;7.03;;
79646;SDS011;69119;41.718;21.786;2023-04-24T15:02:33;8.18;;;6.25;;
79646;SDS011;69119;41.718;21.786;2023-04-24T15:05:01;9.77;;;6.55;;
79646;SDS011;69119;41.718;21.786;2023-04-24T15:07:29;12.48;;;8.88;;
79646;SDS011;69119;41.718;21.786;2023-04-24T15:09:56;11.80;;;8.68;;
79646;SDS011;69119;41.718;21.786;2023-04-24T15:12:22;9.98;;;6.28;;
79646;SDS011;69119;41.718;21.786;2023-04-24T15:14:48;11.57;;;6.32;;
79646;SDS011;69119;41.718;21.786;2023-04-24T15:17:14;10.13;;;7.55;;
79646;SDS011;69119;41.718;21.786;2023-04-24T15:19:40;15.77;;;10.68;;
79646;SDS011;69119;41.718;21.786;2023-04-24T15:22:06;12.77;;;7.57;;
79646;SDS011;69119;41.718;21.786;2023-04-24T15:24:32;12.35;;;9.38;;
79646;SDS011;69119;41.718;21.786;2023-04-24T15:26:58;9.27;;;7.72;;
79646;SDS011;69119;41.718;21.786;2023-04-24T15:29:26;11.07;;;8.75;;
79646;SDS011;69119;41.718;21.786;2023-04-24T15:31:52;13.55;;;9.02;;